createdAt,value
2022-12-15T00:01:42.399Z,211.88
2022-12-15T00:04:03.068Z,209.75
2022-12-15T00:06:24.211Z,231.75
2022-12-15T00:08:45.198Z,226.85
2022-12-15T00:11:06.065Z,212.43
2022-12-15T00:13:29.812Z,214.93
2022-12-15T00:15:51.211Z,233.43
2022-12-15T00:18:13.579Z,226.15
2022-12-15T00:20:35.111Z,224.35
2022-12-15T00:22:56.091Z,237.63
2022-12-15T00:25:17.097Z,217.13
2022-12-15T00:27:38.842Z,212.07
2022-12-15T00:29:59.942Z,209.98
2022-12-15T00:32:20.673Z,219.05
2022-12-15T00:34:42.983Z,208.93
2022-12-15T00:37:03.858Z,204.35
2022-12-15T00:39:07.266Z,212.35
2022-12-15T00:41:10.679Z,230.55
2022-12-15T00:43:14.071Z,225.52
2022-12-15T00:45:17.618Z,200.25
2022-12-15T00:47:20.437Z,219.35
2022-12-15T00:49:43.595Z,251.23
2022-12-15T00:52:04.697Z,216.88
2022-12-15T00:54:25.899Z,211.50
2022-12-15T00:56:47.392Z,237.05
2022-12-15T00:59:08.495Z,226.73
2022-12-15T01:01:29.809Z,215.98
2022-12-15T01:03:50.962Z,229.57
2022-12-15T01:06:13.327Z,222.80
2022-12-15T01:08:34.445Z,219.00
2022-12-15T01:10:55.671Z,229.60
2022-12-15T01:13:16.690Z,251.90
2022-12-15T01:15:37.675Z,234.48
2022-12-15T01:17:58.751Z,240.73
2022-12-15T01:20:14.436Z,230.40
2022-12-15T01:22:19.112Z,233.73
2022-12-15T01:24:22.372Z,219.80
2022-12-15T01:26:25.661Z,222.27
2022-12-15T01:28:29.644Z,229.90
2022-12-15T01:30:32.948Z,246.68
2022-12-15T01:32:36.254Z,233.32
2022-12-15T01:34:39.543Z,227.30
2022-12-15T01:36:42.847Z,219.27
2022-12-15T01:38:53.730Z,219.75
2022-12-15T01:41:00.818Z,231.60
2022-12-15T01:43:04.369Z,242.65
2022-12-15T01:45:50.100Z,250.57
2022-12-15T01:47:54.665Z,236.23
2022-12-15T01:49:57.998Z,223.95
2022-12-15T01:52:06.714Z,255.65
2022-12-15T01:54:15.970Z,245.73
2022-12-15T01:56:20.797Z,250.32
2022-12-15T01:58:24.533Z,298.05
2022-12-15T02:00:28.525Z,229.40
2022-12-15T02:02:38.357Z,248.35
2022-12-15T02:04:43.786Z,322.75
2022-12-15T02:06:47.193Z,257.75
2022-12-15T02:08:54.108Z,228.60
2022-12-15T02:11:24.605Z,233.73
2022-12-15T02:13:36.397Z,250.82
2022-12-15T02:15:48.159Z,265.42
2022-12-15T02:18:05.004Z,208.60
2022-12-15T02:20:49.857Z,217.23
2022-12-15T02:23:13.912Z,197.07
2022-12-15T02:25:42.455Z,202.57
2022-12-15T02:27:56.162Z,210.80
2022-12-15T02:31:09.391Z,205.27
2022-12-15T02:33:22.269Z,219.95
2022-12-15T02:35:31.885Z,202.88
2022-12-15T02:37:37.849Z,193.52
2022-12-15T02:39:41.212Z,202.20
2022-12-15T02:41:46.043Z,210.77
2022-12-15T02:43:49.918Z,207.07
2022-12-15T02:46:05.418Z,201.25
2022-12-15T02:48:20.983Z,217.30
2022-12-15T02:50:35.542Z,208.02
2022-12-15T02:52:51.221Z,202.05
2022-12-15T02:55:10.060Z,206.45
2022-12-15T02:57:21.085Z,192.57
2022-12-15T02:59:34.983Z,206.82
2022-12-15T03:01:44.478Z,192.30
2022-12-15T03:03:49.566Z,205.43
2022-12-15T03:05:54.738Z,209.07
2022-12-15T03:07:58.115Z,210.38
2022-12-15T03:10:04.099Z,209.07
2022-12-15T03:12:08.170Z,211.13
2022-12-15T03:14:11.616Z,202.40
2022-12-15T03:16:15.348Z,205.82
2022-12-15T03:18:20.163Z,209.35
2022-12-15T03:20:26.682Z,225.30
2022-12-15T03:22:29.965Z,210.38
2022-12-15T03:24:33.328Z,207.00
2022-12-15T03:26:36.667Z,199.27
2022-12-15T03:28:39.996Z,203.40
2022-12-15T03:30:43.268Z,218.13
2022-12-15T03:32:48.393Z,217.00
2022-12-15T03:34:53.077Z,208.43
2022-12-15T03:36:56.435Z,201.35
2022-12-15T03:38:59.726Z,213.32
2022-12-15T03:41:03.078Z,234.18
2022-12-15T03:43:06.429Z,222.43
2022-12-15T03:45:10.406Z,213.30
2022-12-15T03:47:13.698Z,190.88
2022-12-15T03:49:17.228Z,222.00
2022-12-15T03:51:22.250Z,206.15
2022-12-15T03:53:25.681Z,194.95
2022-12-15T03:55:29.879Z,212.27
2022-12-15T03:57:33.205Z,205.95
2022-12-15T03:59:36.526Z,218.25
2022-12-15T04:01:47.118Z,208.05
2022-12-15T04:03:52.435Z,198.00
2022-12-15T04:05:58.873Z,201.85
2022-12-15T04:08:03.700Z,218.52
2022-12-15T04:10:07.779Z,212.10
2022-12-15T04:12:12.614Z,221.05
2022-12-15T04:14:15.896Z,217.43
2022-12-15T04:16:20.275Z,227.68
2022-12-15T04:18:23.867Z,212.55
2022-12-15T04:20:26.288Z,216.15
2022-12-15T04:22:29.603Z,202.95
2022-12-15T04:24:51.949Z,206.18
2022-12-15T04:27:12.989Z,208.15
2022-12-15T04:29:33.736Z,199.00
2022-12-15T04:31:54.620Z,213.40
2022-12-15T04:34:19.898Z,192.60
2022-12-15T04:36:41.230Z,229.65
2022-12-15T04:39:02.156Z,202.52
2022-12-15T04:41:24.804Z,216.60
2022-12-15T04:43:45.778Z,201.23
2022-12-15T04:46:06.847Z,203.35
2022-12-15T04:48:27.808Z,204.20
2022-12-15T04:50:49.065Z,195.77
2022-12-15T04:53:10.764Z,209.48
2022-12-15T04:55:31.874Z,198.77
2022-12-15T04:57:54.182Z,197.68
2022-12-15T05:00:15.329Z,217.95
2022-12-15T05:02:36.438Z,211.35
2022-12-15T05:04:57.390Z,210.23
2022-12-15T05:07:18.443Z,222.65
2022-12-15T05:09:39.507Z,215.55
2022-12-15T05:12:00.367Z,204.80
2022-12-15T05:14:22.766Z,208.50
2022-12-15T05:16:43.906Z,214.90
2022-12-15T05:19:04.854Z,190.30
2022-12-15T05:21:26.493Z,200.13
2022-12-15T05:23:47.641Z,210.65
2022-12-15T05:26:08.610Z,215.75
2022-12-15T05:28:29.573Z,202.98
2022-12-15T05:30:51.897Z,198.82
2022-12-15T05:32:55.472Z,189.18
2022-12-15T05:34:58.857Z,200.02
2022-12-15T05:37:03.980Z,211.13
2022-12-15T05:39:07.499Z,197.85
2022-12-15T05:41:10.841Z,210.73
2022-12-15T05:43:14.150Z,180.73
2022-12-15T05:45:17.599Z,187.23
2022-12-15T05:47:22.573Z,197.63
2022-12-15T05:49:26.425Z,181.05
2022-12-15T05:51:29.772Z,190.15
2022-12-15T05:53:33.614Z,199.57
2022-12-15T05:55:37.098Z,181.68
2022-12-15T05:57:40.407Z,188.77
2022-12-15T05:59:43.832Z,182.35
2022-12-15T06:01:47.232Z,199.90
2022-12-15T06:03:52.091Z,184.57
2022-12-15T06:05:56.788Z,184.75
2022-12-15T06:08:01.174Z,189.75
2022-12-15T06:10:05.237Z,190.30
2022-12-15T06:12:08.689Z,189.80
2022-12-15T06:14:11.998Z,187.48
2022-12-15T06:16:18.073Z,203.60
2022-12-15T06:18:21.426Z,193.15
2022-12-15T06:20:26.123Z,192.00
2022-12-15T06:22:29.927Z,190.63
2022-12-15T06:24:33.252Z,192.32
2022-12-15T06:26:38.093Z,201.35
2022-12-15T06:28:42.034Z,181.82
2022-12-15T06:30:45.328Z,185.77
2022-12-15T06:32:49.916Z,186.88
2022-12-15T06:34:53.438Z,183.00
2022-12-15T06:36:58.234Z,193.63
2022-12-15T06:39:02.881Z,188.00
2022-12-15T06:41:07.714Z,189.00
2022-12-15T06:43:11.054Z,189.50
2022-12-15T06:45:14.442Z,204.02
2022-12-15T06:47:18.372Z,195.80
2022-12-15T06:49:21.881Z,207.35
2022-12-15T06:51:25.751Z,199.52
2022-12-15T06:53:31.143Z,205.80
2022-12-15T06:55:34.804Z,220.45
2022-12-15T06:57:38.886Z,208.80
2022-12-15T06:59:42.223Z,208.23
2022-12-15T07:01:45.774Z,200.10
2022-12-15T07:03:49.652Z,202.73
2022-12-15T07:06:03.409Z,192.15
2022-12-15T07:08:07.092Z,208.10
2022-12-15T07:10:12.354Z,191.68
2022-12-15T07:12:15.922Z,195.45
2022-12-15T07:14:19.226Z,187.10
2022-12-15T07:16:24.645Z,193.32
2022-12-15T07:18:28.194Z,195.18
2022-12-15T07:20:31.755Z,203.10
2022-12-15T07:22:35.308Z,194.20
2022-12-15T07:24:38.723Z,200.98
2022-12-15T07:26:44.430Z,207.57
2022-12-15T07:28:47.755Z,226.68
2022-12-15T07:30:51.115Z,200.15
2022-12-15T07:32:54.444Z,188.07
2022-12-15T07:34:57.768Z,199.32
2022-12-15T07:37:01.015Z,210.30
2022-12-15T07:39:05.364Z,194.65
2022-12-15T07:41:09.380Z,207.25
2022-12-15T07:43:14.005Z,225.95
2022-12-15T07:45:17.543Z,204.93
2022-12-15T07:47:20.960Z,208.52
2022-12-15T07:49:24.258Z,207.10
2022-12-15T07:51:27.711Z,215.65
2022-12-15T07:53:31.640Z,199.43
2022-12-15T07:56:05.078Z,211.73
2022-12-15T07:57:58.705Z,206.20
2022-12-15T08:00:05.428Z,199.15
2022-12-15T08:02:15.404Z,195.95
2022-12-15T08:04:19.541Z,205.23
2022-12-15T08:06:22.982Z,202.00
2022-12-15T08:08:26.315Z,206.27
2022-12-15T08:10:29.904Z,211.80
2022-12-15T08:12:33.314Z,208.48
2022-12-15T08:14:36.968Z,218.65
2022-12-15T08:16:41.925Z,205.68
2022-12-15T08:18:45.417Z,223.68
2022-12-15T08:20:50.309Z,209.73
2022-12-15T08:22:53.902Z,195.98
2022-12-15T08:24:57.213Z,206.65
2022-12-15T08:27:00.577Z,218.02
2022-12-15T08:29:49.008Z,215.18
2022-12-15T08:31:30.697Z,206.48
2022-12-15T08:33:35.830Z,201.70
2022-12-15T08:35:56.463Z,205.82
2022-12-15T08:38:05.448Z,199.60
2022-12-15T08:40:10.177Z,186.45
2022-12-15T08:42:13.564Z,195.93
2022-12-15T08:44:17.360Z,206.40
2022-12-15T08:46:23.233Z,211.55
2022-12-15T08:48:26.786Z,216.52
2022-12-15T08:50:31.883Z,226.15
2022-12-15T08:52:35.647Z,223.85
2022-12-15T08:54:39.049Z,207.32
2022-12-15T08:56:42.424Z,225.55
2022-12-15T08:58:46.669Z,221.45
2022-12-15T09:00:50.035Z,199.00
2022-12-15T09:02:53.402Z,205.00
2022-12-15T09:04:56.732Z,205.50
2022-12-15T09:07:01.922Z,222.75
2022-12-15T09:09:07.521Z,198.10
2022-12-15T09:11:11.148Z,222.77
2022-12-15T09:13:14.554Z,214.18
2022-12-15T09:15:18.116Z,196.73
2022-12-15T09:17:21.481Z,228.30
2022-12-15T09:19:25.262Z,212.10
2022-12-15T09:21:31.019Z,206.98
2022-12-15T09:23:37.249Z,211.85
2022-12-15T09:25:40.630Z,222.88
2022-12-15T09:27:43.997Z,206.07
2022-12-15T09:29:47.235Z,202.40
2022-12-15T09:31:50.640Z,210.57
2022-12-15T09:33:55.644Z,201.77
2022-12-15T09:35:58.981Z,229.25
2022-12-15T09:38:02.308Z,231.38
2022-12-15T09:40:09.900Z,213.52
2022-12-15T09:42:25.605Z,233.15
2022-12-15T09:44:31.428Z,214.80
2022-12-15T09:46:50.335Z,206.10
2022-12-15T09:48:55.092Z,236.15
2022-12-15T09:50:59.247Z,220.48
2022-12-15T09:53:17.723Z,215.93
2022-12-15T09:55:31.078Z,214.23
2022-12-15T09:57:41.513Z,226.63
2022-12-15T09:59:58.751Z,227.85
2022-12-15T10:02:23.780Z,218.88
2022-12-15T10:04:39.435Z,68.25
2022-12-15T10:06:50.789Z,200.38
2022-12-15T10:08:57.073Z,309.92
2022-12-15T10:11:05.371Z,318.55
2022-12-15T10:13:16.009Z,377.90
2022-12-15T10:15:25.608Z,267.90
2022-12-15T10:17:37.494Z,277.85
2022-12-15T10:19:45.434Z,413.63
2022-12-15T10:21:53.341Z,352.10
2022-12-15T10:24:00.226Z,399.33
2022-12-15T10:26:20.191Z,304.63
2022-12-15T10:28:45.281Z,397.15
2022-12-15T10:31:00.243Z,359.98
2022-12-15T10:33:10.325Z,292.45
2022-12-15T10:35:16.921Z,289.83
2022-12-15T10:37:21.868Z,339.33
2022-12-15T10:39:37.230Z,332.58
2022-12-15T10:41:41.960Z,411.45
2022-12-15T10:43:47.185Z,397.85
2022-12-15T10:45:51.216Z,367.13
2022-12-15T10:48:02.379Z,388.73
2022-12-15T10:50:25.034Z,350.15
2022-12-15T10:52:36.659Z,382.80
2022-12-15T10:54:47.129Z,428.02
2022-12-15T10:56:54.919Z,428.35
2022-12-15T10:59:00.366Z,408.30
2022-12-15T11:01:08.386Z,421.80
2022-12-15T11:03:23.302Z,435.33
2022-12-15T11:05:27.779Z,463.60
2022-12-15T11:07:36.506Z,450.83
2022-12-15T11:09:40.942Z,471.23
2022-12-15T11:12:05.600Z,424.42
2022-12-15T11:14:15.704Z,462.88
2022-12-15T11:16:20.326Z,442.02
2022-12-15T11:18:33.555Z,455.25
2022-12-15T11:20:40.957Z,434.33
2022-12-15T11:22:50.378Z,449.58
2022-12-15T11:25:10.412Z,444.80
2022-12-15T11:27:22.100Z,451.23
2022-12-15T11:29:34.453Z,462.52
2022-12-15T11:31:41.457Z,456.48
2022-12-15T11:33:44.871Z,399.85
2022-12-15T11:36:01.843Z,414.60
2022-12-15T11:38:12.703Z,432.23
2022-12-15T11:40:28.327Z,437.85
2022-12-15T11:42:43.729Z,460.67
2022-12-15T11:45:01.552Z,453.00
2022-12-15T11:47:13.182Z,439.77
2022-12-15T11:49:40.950Z,451.58
2022-12-15T11:51:50.808Z,458.88
2022-12-15T11:54:08.984Z,447.17
2022-12-15T11:56:21.558Z,457.80
2022-12-15T11:58:49.950Z,477.40
2022-12-15T12:01:05.786Z,453.40
2022-12-15T12:03:26.314Z,455.17
2022-12-15T12:06:04.026Z,448.15
2022-12-15T12:08:22.021Z,462.70
2022-12-15T12:10:34.252Z,446.92
2022-12-15T12:12:44.907Z,457.23
2022-12-15T12:14:57.414Z,469.38
2022-12-15T12:17:08.142Z,446.88
2022-12-15T12:19:14.414Z,484.05
2022-12-15T12:21:24.224Z,491.85
2022-12-15T12:23:36.561Z,480.65
2022-12-15T12:25:46.873Z,481.08
2022-12-15T12:27:57.097Z,498.88
2022-12-15T12:30:05.263Z,487.30
2022-12-15T12:32:18.025Z,476.13
2022-12-15T12:34:27.465Z,493.80
2022-12-15T12:36:30.741Z,497.08
2022-12-15T12:38:39.235Z,496.83
2022-12-15T12:40:52.807Z,510.85
2022-12-15T12:42:58.126Z,500.20
2022-12-15T12:45:03.076Z,503.77
2022-12-15T12:47:15.752Z,497.23
2022-12-15T12:49:26.989Z,498.58
2022-12-15T12:51:34.765Z,502.35
2022-12-15T12:53:38.045Z,511.80
2022-12-15T12:55:43.470Z,508.40
2022-12-15T12:57:47.445Z,224.60
2022-12-15T12:59:59.495Z,501.63
2022-12-15T13:02:37.993Z,496.02
2022-12-15T13:04:44.959Z,485.15
2022-12-15T13:07:03.075Z,499.80
2022-12-15T13:09:22.946Z,488.50
2022-12-15T13:12:15.085Z,513.63
2022-12-15T13:14:35.907Z,494.77
2022-12-15T13:16:40.429Z,499.52
2022-12-15T13:19:06.644Z,517.80
2022-12-15T13:21:53.260Z,505.48
2022-12-15T13:24:00.150Z,518.42
2022-12-15T13:26:14.040Z,524.25
2022-12-15T13:28:31.190Z,514.40
2022-12-15T13:30:34.909Z,512.88
2022-12-15T13:32:40.111Z,519.55
2022-12-15T13:34:45.092Z,514.30
2022-12-15T13:37:01.230Z,507.52
2022-12-15T13:39:26.271Z,517.33
2022-12-15T13:41:29.641Z,503.75
2022-12-15T13:43:43.549Z,515.95
2022-12-15T13:45:53.383Z,502.98
2022-12-15T13:47:57.458Z,508.88
2022-12-15T13:50:07.755Z,497.67
2022-12-15T13:52:18.257Z,497.08
2022-12-15T13:54:24.958Z,496.35
2022-12-15T13:56:55.784Z,508.27
2022-12-15T13:59:05.132Z,500.60
2022-12-15T14:01:21.269Z,492.52
2022-12-15T14:03:25.751Z,506.13
2022-12-15T14:05:29.377Z,507.60
2022-12-15T14:07:34.805Z,510.63
2022-12-15T14:09:43.015Z,505.27
2022-12-15T14:11:55.276Z,495.35
2022-12-15T14:14:00.665Z,492.83
2022-12-15T14:16:08.346Z,498.77
2022-12-15T14:18:25.490Z,498.30
2022-12-15T14:20:31.908Z,491.65
2022-12-15T14:22:36.794Z,485.17
2022-12-15T14:24:45.827Z,503.05
2022-12-15T14:26:53.010Z,475.38
2022-12-15T14:29:02.210Z,484.45
2022-12-15T14:31:12.561Z,479.50
2022-12-15T14:33:18.910Z,485.52
2022-12-15T14:35:27.238Z,497.33
2022-12-15T14:37:31.025Z,480.00
2022-12-15T14:39:41.709Z,470.45
2022-12-15T14:41:48.908Z,483.00
2022-12-15T14:46:23.882Z,484.70
2022-12-15T14:48:41.087Z,476.83
2022-12-15T14:50:47.892Z,481.95
2022-12-15T14:52:56.575Z,474.90
2022-12-15T14:55:03.430Z,470.13
2022-12-15T14:57:15.899Z,469.42
2022-12-15T14:59:21.245Z,468.63
2022-12-15T15:01:26.745Z,485.73
2022-12-15T15:03:37.118Z,476.58
2022-12-15T15:05:42.939Z,489.45
2022-12-15T15:07:46.991Z,491.58
2022-12-15T15:09:51.227Z,488.17
2022-12-15T15:12:01.135Z,477.10
2022-12-15T15:14:09.088Z,469.45
2022-12-15T15:16:17.710Z,468.08
2022-12-15T15:18:27.422Z,468.10
2022-12-15T15:20:34.359Z,469.42
2022-12-15T15:22:41.412Z,471.35
2022-12-15T15:24:52.624Z,475.45
2022-12-15T15:27:27.559Z,470.58
2022-12-15T15:29:39.306Z,460.00
2022-12-15T15:31:42.759Z,485.30
2022-12-15T15:33:46.401Z,481.88
2022-12-15T15:35:53.050Z,478.58
2022-12-15T15:38:02.551Z,471.58
2022-12-15T15:40:11.742Z,472.30
2022-12-15T15:42:16.591Z,472.63
2022-12-15T15:44:19.925Z,461.45
2022-12-15T15:46:26.556Z,465.42
2022-12-15T15:48:33.086Z,486.05
2022-12-15T15:50:37.813Z,483.38
2022-12-15T15:52:41.801Z,473.80
2022-12-15T15:54:45.802Z,461.17
2022-12-15T15:56:49.165Z,477.75
2022-12-15T15:58:54.252Z,468.50
2022-12-15T16:00:57.633Z,460.30
2022-12-15T16:03:01.227Z,468.42
2022-12-15T16:05:05.070Z,460.10
2022-12-15T16:07:16.294Z,475.58
2022-12-15T16:09:19.888Z,472.95
2022-12-15T16:11:23.744Z,463.77
2022-12-15T16:13:27.911Z,466.45
2022-12-15T16:15:32.756Z,460.98
2022-12-15T16:17:36.201Z,454.10
2022-12-15T16:19:40.037Z,461.85
2022-12-15T16:21:43.896Z,446.42
2022-12-15T16:23:49.851Z,455.73
2022-12-15T16:25:55.608Z,468.25
2022-12-15T16:27:59.248Z,464.95
2022-12-15T16:30:02.616Z,453.13
2022-12-15T16:32:09.777Z,462.75
2022-12-15T16:34:13.353Z,438.30
2022-12-15T16:36:16.613Z,469.20
2022-12-15T16:38:25.464Z,443.98
2022-12-15T16:40:28.908Z,437.15
2022-12-15T16:42:32.336Z,451.98
2022-12-15T16:44:35.663Z,449.33
2022-12-15T16:46:39.081Z,457.17
2022-12-15T16:48:44.304Z,451.23
2022-12-15T16:50:52.197Z,454.95
2022-12-15T16:52:56.206Z,451.13
2022-12-15T16:54:59.723Z,440.73
2022-12-15T16:57:03.800Z,441.70
2022-12-15T16:59:32.077Z,454.05
2022-12-15T17:01:35.459Z,450.65
2022-12-15T17:03:44.542Z,434.38
2022-12-15T17:05:50.470Z,436.92
2022-12-15T17:07:57.556Z,438.77
2022-12-15T17:10:01.009Z,441.23
2022-12-15T17:12:04.673Z,437.98
2022-12-15T17:14:08.568Z,439.08
2022-12-15T17:16:14.781Z,439.52
2022-12-15T17:18:18.210Z,422.77
2022-12-15T17:20:29.649Z,435.30
2022-12-15T17:22:34.451Z,436.83
2022-12-15T17:24:37.785Z,433.77
2022-12-15T17:26:43.260Z,454.48
2022-12-15T17:28:46.671Z,431.45
2022-12-15T17:30:51.411Z,425.02
2022-12-15T17:32:54.840Z,456.80
2022-12-15T17:34:58.320Z,440.02
2022-12-15T17:37:05.426Z,440.45
2022-12-15T17:39:11.701Z,432.60
2022-12-15T17:41:35.034Z,437.02
2022-12-15T17:43:39.316Z,447.13
2022-12-15T17:45:43.273Z,438.60
2022-12-15T17:47:47.089Z,436.98
2022-12-15T17:49:50.390Z,56.10
2022-12-15T17:51:53.713Z,33.28
2022-12-15T17:53:59.898Z,36.47
2022-12-15T17:56:03.313Z,43.05
2022-12-15T17:58:16.745Z,141.80
2022-12-15T18:00:23.833Z,294.80
2022-12-15T18:02:27.443Z,30.08
2022-12-15T18:04:31.387Z,53.10
2022-12-15T18:06:34.771Z,34.80
2022-12-15T18:08:38.314Z,341.40
2022-12-15T18:10:43.691Z,462.92
2022-12-15T18:12:46.996Z,470.77
2022-12-15T18:14:50.543Z,452.85
2022-12-15T18:16:53.839Z,455.52
2022-12-15T18:18:57.437Z,464.27
2022-12-15T18:21:08.594Z,455.20
2022-12-15T18:23:15.924Z,442.38
2022-12-15T18:25:23.277Z,454.17
2022-12-15T18:27:30.346Z,446.08
2022-12-15T18:29:33.708Z,440.38
2022-12-15T18:31:37.062Z,450.38
2022-12-15T18:33:40.569Z,446.85
2022-12-15T18:35:46.711Z,428.58
2022-12-15T18:37:51.838Z,434.10
2022-12-15T18:39:58.236Z,453.92
2022-12-15T18:42:07.066Z,437.05
2022-12-15T18:44:19.310Z,454.55
2022-12-15T18:46:22.701Z,437.38
2022-12-15T18:48:28.276Z,441.77
2022-12-15T18:50:31.719Z,432.15
2022-12-15T18:52:36.762Z,454.70
2022-12-15T18:54:40.788Z,453.45
2022-12-15T18:56:44.162Z,435.88
2022-12-15T18:58:47.612Z,442.02
2022-12-15T19:00:53.162Z,436.30
2022-12-15T19:03:00.096Z,435.40
2022-12-15T19:05:03.605Z,444.67
2022-12-15T19:07:07.578Z,442.38
2022-12-15T19:09:15.647Z,448.45
2022-12-15T19:11:31.062Z,449.20
2022-12-15T19:13:37.670Z,437.20
2022-12-15T19:15:41.038Z,440.98
2022-12-15T19:18:03.427Z,440.60
2022-12-15T19:20:32.084Z,435.38
2022-12-15T19:22:35.403Z,427.63
2022-12-15T19:24:56.690Z,441.88
2022-12-15T19:27:00.152Z,425.20
2022-12-15T19:29:11.526Z,440.92
2022-12-15T19:31:14.897Z,427.17
2022-12-15T19:33:20.560Z,425.77
2022-12-15T19:35:24.740Z,431.92
2022-12-15T19:37:30.915Z,432.23
2022-12-15T19:39:37.011Z,437.40
2022-12-15T19:41:40.402Z,435.02
2022-12-15T19:43:44.512Z,424.13
2022-12-15T19:45:48.206Z,417.33
2022-12-15T19:47:51.954Z,422.85
2022-12-15T19:49:56.663Z,420.85
2022-12-15T19:52:00.010Z,424.10
2022-12-15T19:54:03.911Z,419.10
2022-12-15T19:56:08.626Z,431.15
2022-12-15T19:58:28.490Z,416.75
2022-12-15T20:00:32.065Z,423.20
2022-12-15T20:02:35.479Z,429.73
2022-12-15T20:04:38.931Z,425.30
2022-12-15T20:06:43.911Z,430.98
2022-12-15T20:08:50.485Z,427.48
2022-12-15T20:10:55.473Z,409.65
2022-12-15T20:12:59.546Z,413.67
2022-12-15T20:15:02.934Z,427.05
2022-12-15T20:17:06.404Z,416.05
2022-12-15T20:19:09.765Z,430.90
2022-12-15T20:21:17.919Z,424.42
2022-12-15T20:23:27.365Z,419.95
2022-12-15T20:25:36.017Z,417.13
2022-12-15T20:27:39.352Z,418.88
2022-12-15T20:29:43.182Z,411.08
2022-12-15T20:31:46.597Z,425.40
2022-12-15T20:33:50.454Z,413.08
2022-12-15T20:35:55.087Z,437.52
2022-12-15T20:37:58.669Z,441.88
2022-12-15T20:40:03.345Z,424.40
2022-12-15T20:42:07.245Z,423.83
2022-12-15T20:44:13.694Z,411.15
2022-12-15T20:46:20.716Z,413.75
2022-12-15T20:48:25.499Z,408.35
2022-12-15T20:50:34.937Z,425.50
2022-12-15T20:52:38.302Z,411.02
2022-12-15T20:54:42.830Z,416.90
2022-12-15T20:56:48.726Z,410.20
2022-12-15T20:58:52.208Z,404.85
2022-12-15T21:00:55.707Z,413.98
2022-12-15T21:02:59.380Z,414.98
2022-12-15T21:05:03.476Z,425.95
2022-12-15T21:07:07.175Z,429.63
2022-12-15T21:09:12.118Z,416.73
2022-12-15T21:11:18.474Z,403.70
2022-12-15T21:13:27.363Z,410.65
2022-12-15T21:15:30.716Z,404.92
2022-12-15T21:17:38.663Z,409.83
2022-12-15T21:19:45.811Z,417.95
2022-12-15T21:21:51.891Z,412.75
2022-12-15T21:23:56.021Z,405.92
2022-12-15T21:26:00.425Z,412.27
2022-12-15T21:28:03.698Z,442.48
2022-12-15T21:30:15.978Z,402.02
2022-12-15T21:32:19.360Z,428.52
2022-12-15T21:34:22.681Z,417.33
2022-12-15T21:36:26.043Z,414.77
2022-12-15T21:38:33.250Z,425.73
2022-12-15T21:40:36.804Z,422.48
2022-12-15T21:42:40.132Z,419.27
2022-12-15T21:44:43.577Z,414.70
2022-12-15T21:46:48.721Z,415.58
2022-12-15T21:49:09.840Z,410.42
2022-12-15T21:51:15.479Z,419.55
2022-12-15T21:53:18.948Z,408.25
2022-12-15T21:55:26.050Z,418.80
2022-12-15T21:57:29.516Z,419.23
2022-12-15T21:59:34.031Z,416.48
2022-12-15T22:01:37.430Z,421.35
2022-12-15T22:03:44.865Z,422.05
2022-12-15T22:05:48.170Z,410.00
2022-12-15T22:07:52.102Z,418.90
2022-12-15T22:09:55.411Z,420.33
2022-12-15T22:11:58.968Z,419.83
2022-12-15T22:14:04.502Z,421.70
2022-12-15T22:16:09.795Z,429.77
2022-12-15T22:18:19.540Z,429.27
2022-12-15T22:20:25.632Z,421.20
2022-12-15T22:22:31.964Z,425.15
2022-12-15T22:24:35.481Z,414.10
2022-12-15T22:26:40.660Z,430.48
2022-12-15T22:28:44.116Z,413.60
2022-12-15T22:30:47.526Z,413.15
2022-12-15T22:32:51.216Z,414.08
2022-12-15T22:34:54.563Z,409.88
2022-12-15T22:36:59.202Z,403.58
2022-12-15T22:39:07.503Z,415.73
2022-12-15T22:41:19.322Z,418.25
2022-12-15T22:43:26.838Z,402.85
2022-12-15T22:45:30.198Z,405.58
2022-12-15T22:47:37.210Z,424.92
2022-12-15T22:49:42.244Z,404.73
2022-12-15T22:51:46.056Z,418.95
2022-12-15T22:53:50.798Z,411.95
2022-12-15T22:55:55.251Z,406.30
2022-12-15T22:58:02.983Z,416.33
2022-12-15T23:00:09.137Z,402.25
2022-12-15T23:02:12.787Z,413.40
2022-12-15T23:04:16.202Z,410.90
2022-12-15T23:06:20.275Z,414.13
2022-12-15T23:08:23.583Z,409.60
2022-12-15T23:10:45.593Z,406.92
2022-12-15T23:12:54.160Z,411.80
2022-12-15T23:15:19.871Z,413.30
2022-12-15T23:17:24.872Z,403.60
2022-12-15T23:19:28.117Z,405.75
2022-12-15T23:21:32.282Z,401.27
2022-12-15T23:23:35.928Z,407.15
2022-12-15T23:25:40.922Z,414.88
2022-12-15T23:27:44.580Z,399.50
2022-12-15T23:29:47.823Z,401.65
2022-12-15T23:31:51.149Z,397.30
2022-12-15T23:33:55.319Z,417.95
2022-12-15T23:36:01.038Z,414.85
2022-12-15T23:38:04.679Z,422.30
2022-12-15T23:40:09.164Z,411.83
2022-12-15T23:42:13.861Z,408.70
2022-12-15T23:44:17.348Z,405.33
2022-12-15T23:46:21.427Z,413.38
2022-12-15T23:48:26.020Z,413.20
2022-12-15T23:50:29.687Z,393.17
2022-12-15T23:52:33.055Z,412.95
2022-12-15T23:54:36.377Z,407.70
2022-12-15T23:56:40.364Z,407.65
2022-12-15T23:58:46.323Z,406.00
